sensor_id;sensor_type;location;lat;lon;timestamp;P1;durP1;ratioP1;P2;durP2;ratioP2
52414;SDS011;38340;52.964;6.086;2023-08-06T00:00:26;17.23;;;13.60;;
52414;SDS011;38340;52.964;6.086;2023-08-06T00:02:52;16.92;;;12.35;;
52414;SDS011;38340;52.964;6.086;2023-08-06T00:05:18;16.98;;;12.40;;
52414;SDS011;38340;52.964;6.086;2023-08-06T00:07:46;20.58;;;14.00;;
52414;SDS011;38340;52.964;6.086;2023-08-06T00:10:12;17.63;;;13.52;;
52414;SDS011;38340;52.964;6.086;2023-08-06T00:12:38;16.85;;;13.05;;
52414;SDS011;38340;52.964;6.086;2023-08-06T00:15:04;17.33;;;13.20;;
52414;SDS011;38340;52.964;6.086;2023-08-06T00:17:30;16.35;;;12.68;;
52414;SDS011;38340;52.964;6.086;2023-08-06T00:19:55;16.55;;;12.68;;
52414;SDS011;38340;52.964;6.086;2023-08-06T00:22:21;17.13;;;12.82;;
52414;SDS011;38340;52.964;6.086;2023-08-06T00:24:47;17.98;;;13.15;;
52414;SDS011;38340;52.964;6.086;2023-08-06T00:27:12;16.17;;;12.63;;
52414;SDS011;38340;52.964;6.086;2023-08-06T00:29:38;15.70;;;12.75;;
52414;SDS011;38340;52.964;6.086;2023-08-06T00:32:04;15.68;;;13.00;;
52414;SDS011;38340;52.964;6.086;2023-08-06T00:34:30;16.48;;;13.32;;
52414;SDS011;38340;52.964;6.086;2023-08-06T00:36:55;16.15;;;12.68;;
52414;SDS011;38340;52.964;6.086;2023-08-06T00:39:21;18.02;;;13.38;;
52414;SDS011;38340;52.964;6.086;2023-08-06T00:41:46;15.27;;;12.55;;
52414;SDS011;38340;52.964;6.086;2023-08-06T00:44:12;16.83;;;12.70;;
52414;SDS011;38340;52.964;6.086;2023-08-06T00:46:38;16.38;;;13.15;;
52414;SDS011;38340;52.964;6.086;2023-08-06T00:49:04;17.33;;;12.45;;
52414;SDS011;38340;52.964;6.086;2023-08-06T00:51:30;16.17;;;12.50;;
52414;SDS011;38340;52.964;6.086;2023-08-06T00:53:57;15.10;;;12.60;;
52414;SDS011;38340;52.964;6.086;2023-08-06T00:56:23;16.23;;;12.85;;
52414;SDS011;38340;52.964;6.086;2023-08-06T00:58:50;16.52;;;13.00;;
52414;SDS011;38340;52.964;6.086;2023-08-06T01:01:16;18.45;;;12.75;;
52414;SDS011;38340;52.964;6.086;2023-08-06T01:03:41;17.33;;;13.40;;
52414;SDS011;38340;52.964;6.086;2023-08-06T01:06:07;16.73;;;12.65;;
52414;SDS011;38340;52.964;6.086;2023-08-06T01:11:47;15.40;;;12.63;;
52414;SDS011;38340;52.964;6.086;2023-08-06T01:14:47;18.55;;;13.50;;
52414;SDS011;38340;52.964;6.086;2023-08-06T01:17:21;17.92;;;13.10;;
52414;SDS011;38340;52.964;6.086;2023-08-06T01:19:49;20.23;;;13.82;;
52414;SDS011;38340;52.964;6.086;2023-08-06T01:22:14;16.42;;;12.75;;
52414;SDS011;38340;52.964;6.086;2023-08-06T01:24:40;20.08;;;14.35;;
52414;SDS011;38340;52.964;6.086;2023-08-06T01:27:37;17.65;;;13.00;;
52414;SDS011;38340;52.964;6.086;2023-08-06T01:30:12;16.13;;;13.30;;
52414;SDS011;38340;52.964;6.086;2023-08-06T01:32:42;16.52;;;13.63;;
52414;SDS011;38340;52.964;6.086;2023-08-06T01:35:12;16.70;;;13.43;;
52414;SDS011;38340;52.964;6.086;2023-08-06T01:37:40;19.27;;;14.40;;
52414;SDS011;38340;52.964;6.086;2023-08-06T01:40:09;18.17;;;13.30;;
52414;SDS011;38340;52.964;6.086;2023-08-06T01:42:37;20.10;;;13.90;;
52414;SDS011;38340;52.964;6.086;2023-08-06T01:45:03;19.85;;;13.52;;
52414;SDS011;38340;52.964;6.086;2023-08-06T01:47:29;17.60;;;13.82;;
52414;SDS011;38340;52.964;6.086;2023-08-06T01:49:54;19.85;;;14.77;;
52414;SDS011;38340;52.964;6.086;2023-08-06T01:52:21;20.58;;;13.80;;
52414;SDS011;38340;52.964;6.086;2023-08-06T01:54:46;21.02;;;15.30;;
52414;SDS011;38340;52.964;6.086;2023-08-06T01:57:12;17.15;;;13.05;;
52414;SDS011;38340;52.964;6.086;2023-08-06T01:59:38;18.98;;;13.55;;
52414;SDS011;38340;52.964;6.086;2023-08-06T02:02:03;17.10;;;13.45;;
52414;SDS011;38340;52.964;6.086;2023-08-06T02:04:29;19.35;;;14.18;;
52414;SDS011;38340;52.964;6.086;2023-08-06T02:06:55;17.85;;;13.75;;
52414;SDS011;38340;52.964;6.086;2023-08-06T02:09:21;17.05;;;13.85;;
52414;SDS011;38340;52.964;6.086;2023-08-06T02:11:46;18.73;;;14.23;;
52414;SDS011;38340;52.964;6.086;2023-08-06T02:14:12;17.63;;;14.18;;
52414;SDS011;38340;52.964;6.086;2023-08-06T02:16:38;17.88;;;14.50;;
52414;SDS011;38340;52.964;6.086;2023-08-06T02:19:03;18.58;;;13.70;;
52414;SDS011;38340;52.964;6.086;2023-08-06T02:21:29;17.27;;;13.80;;
52414;SDS011;38340;52.964;6.086;2023-08-06T02:23:55;16.05;;;13.38;;
52414;SDS011;38340;52.964;6.086;2023-08-06T02:26:20;17.45;;;13.80;;
52414;SDS011;38340;52.964;6.086;2023-08-06T02:28:46;19.92;;;13.40;;
52414;SDS011;38340;52.964;6.086;2023-08-06T02:31:12;16.48;;;12.75;;
52414;SDS011;38340;52.964;6.086;2023-08-06T02:33:37;15.57;;;12.52;;
52414;SDS011;38340;52.964;6.086;2023-08-06T02:36:03;18.60;;;14.45;;
52414;SDS011;38340;52.964;6.086;2023-08-06T02:38:29;18.63;;;13.50;;
52414;SDS011;38340;52.964;6.086;2023-08-06T02:40:56;18.30;;;13.98;;
52414;SDS011;38340;52.964;6.086;2023-08-06T02:43:22;15.35;;;12.32;;
52414;SDS011;38340;52.964;6.086;2023-08-06T02:45:47;15.35;;;13.27;;
52414;SDS011;38340;52.964;6.086;2023-08-06T02:48:13;15.63;;;12.27;;
52414;SDS011;38340;52.964;6.086;2023-08-06T02:50:39;19.33;;;13.40;;
52414;SDS011;38340;52.964;6.086;2023-08-06T02:53:05;15.85;;;12.95;;
52414;SDS011;38340;52.964;6.086;2023-08-06T02:55:32;14.68;;;12.48;;
52414;SDS011;38340;52.964;6.086;2023-08-06T02:57:59;18.42;;;12.95;;
52414;SDS011;38340;52.964;6.086;2023-08-06T03:00:25;17.55;;;13.25;;
52414;SDS011;38340;52.964;6.086;2023-08-06T03:02:50;15.65;;;12.52;;
52414;SDS011;38340;52.964;6.086;2023-08-06T03:05:16;16.95;;;12.85;;
52414;SDS011;38340;52.964;6.086;2023-08-06T03:07:42;16.05;;;12.80;;
52414;SDS011;38340;52.964;6.086;2023-08-06T03:10:07;17.52;;;13.75;;
52414;SDS011;38340;52.964;6.086;2023-08-06T03:12:33;16.05;;;13.10;;
52414;SDS011;38340;52.964;6.086;2023-08-06T03:14:59;19.20;;;13.18;;
52414;SDS011;38340;52.964;6.086;2023-08-06T03:17:25;14.85;;;12.13;;
52414;SDS011;38340;52.964;6.086;2023-08-06T03:19:50;16.70;;;12.75;;
52414;SDS011;38340;52.964;6.086;2023-08-06T03:22:16;16.27;;;12.82;;
52414;SDS011;38340;52.964;6.086;2023-08-06T03:24:42;16.17;;;12.07;;
52414;SDS011;38340;52.964;6.086;2023-08-06T03:27:07;15.25;;;12.73;;
52414;SDS011;38340;52.964;6.086;2023-08-06T03:29:33;14.70;;;12.43;;
52414;SDS011;38340;52.964;6.086;2023-08-06T03:31:59;16.02;;;12.25;;
52414;SDS011;38340;52.964;6.086;2023-08-06T03:34:24;15.98;;;12.32;;
52414;SDS011;38340;52.964;6.086;2023-08-06T03:36:50;15.00;;;11.30;;
52414;SDS011;38340;52.964;6.086;2023-08-06T03:39:16;16.98;;;13.00;;
52414;SDS011;38340;52.964;6.086;2023-08-06T03:41:41;13.27;;;11.10;;
52414;SDS011;38340;52.964;6.086;2023-08-06T03:44:07;17.05;;;13.23;;
52414;SDS011;38340;52.964;6.086;2023-08-06T03:46:33;14.82;;;12.15;;
52414;SDS011;38340;52.964;6.086;2023-08-06T03:49:02;16.08;;;11.95;;
52414;SDS011;38340;52.964;6.086;2023-08-06T03:51:28;19.95;;;11.85;;
52414;SDS011;38340;52.964;6.086;2023-08-06T03:53:53;16.05;;;12.30;;
52414;SDS011;38340;52.964;6.086;2023-08-06T03:56:19;17.48;;;12.43;;
52414;SDS011;38340;52.964;6.086;2023-08-06T03:58:45;18.15;;;12.88;;
52414;SDS011;38340;52.964;6.086;2023-08-06T04:01:10;16.00;;;12.48;;
52414;SDS011;38340;52.964;6.086;2023-08-06T04:03:36;15.90;;;12.13;;
52414;SDS011;38340;52.964;6.086;2023-08-06T04:06:05;15.77;;;12.25;;
52414;SDS011;38340;52.964;6.086;2023-08-06T04:08:33;16.45;;;12.43;;
52414;SDS011;38340;52.964;6.086;2023-08-06T04:10:58;18.00;;;12.55;;
52414;SDS011;38340;52.964;6.086;2023-08-06T04:13:24;19.55;;;12.82;;
52414;SDS011;38340;52.964;6.086;2023-08-06T04:15:50;18.20;;;12.80;;
52414;SDS011;38340;52.964;6.086;2023-08-06T04:18:15;19.52;;;13.25;;
52414;SDS011;38340;52.964;6.086;2023-08-06T04:20:44;18.08;;;13.10;;
52414;SDS011;38340;52.964;6.086;2023-08-06T04:23:11;17.65;;;13.25;;
52414;SDS011;38340;52.964;6.086;2023-08-06T04:25:37;17.95;;;12.80;;
52414;SDS011;38340;52.964;6.086;2023-08-06T04:28:03;17.08;;;13.25;;
52414;SDS011;38340;52.964;6.086;2023-08-06T04:30:29;17.50;;;12.07;;
52414;SDS011;38340;52.964;6.086;2023-08-06T04:32:56;16.30;;;13.45;;
52414;SDS011;38340;52.964;6.086;2023-08-06T04:35:22;19.42;;;12.98;;
52414;SDS011;38340;52.964;6.086;2023-08-06T04:37:48;20.58;;;12.80;;
52414;SDS011;38340;52.964;6.086;2023-08-06T04:40:14;15.25;;;12.23;;
52414;SDS011;38340;52.964;6.086;2023-08-06T04:42:40;20.20;;;13.20;;
52414;SDS011;38340;52.964;6.086;2023-08-06T04:45:05;16.13;;;13.10;;
52414;SDS011;38340;52.964;6.086;2023-08-06T04:47:32;16.48;;;12.73;;
52414;SDS011;38340;52.964;6.086;2023-08-06T04:49:57;17.83;;;14.35;;
52414;SDS011;38340;52.964;6.086;2023-08-06T04:52:23;17.85;;;13.98;;
52414;SDS011;38340;52.964;6.086;2023-08-06T04:54:52;19.50;;;13.80;;
52414;SDS011;38340;52.964;6.086;2023-08-06T04:57:18;19.90;;;13.98;;
52414;SDS011;38340;52.964;6.086;2023-08-06T04:59:45;17.15;;;13.52;;
52414;SDS011;38340;52.964;6.086;2023-08-06T05:02:10;22.45;;;14.93;;
52414;SDS011;38340;52.964;6.086;2023-08-06T05:04:36;18.42;;;13.23;;
52414;SDS011;38340;52.964;6.086;2023-08-06T05:07:02;19.52;;;14.73;;
52414;SDS011;38340;52.964;6.086;2023-08-06T05:09:28;18.52;;;13.43;;
52414;SDS011;38340;52.964;6.086;2023-08-06T05:11:54;21.80;;;14.25;;
52414;SDS011;38340;52.964;6.086;2023-08-06T05:14:20;19.38;;;14.55;;
52414;SDS011;38340;52.964;6.086;2023-08-06T05:16:45;22.05;;;13.75;;
52414;SDS011;38340;52.964;6.086;2023-08-06T05:19:11;17.63;;;13.75;;
52414;SDS011;38340;52.964;6.086;2023-08-06T05:21:36;18.05;;;13.93;;
52414;SDS011;38340;52.964;6.086;2023-08-06T05:24:02;16.42;;;12.88;;
52414;SDS011;38340;52.964;6.086;2023-08-06T05:26:28;16.70;;;13.80;;
52414;SDS011;38340;52.964;6.086;2023-08-06T05:28:54;16.58;;;13.45;;
52414;SDS011;38340;52.964;6.086;2023-08-06T05:31:19;18.35;;;13.43;;
52414;SDS011;38340;52.964;6.086;2023-08-06T05:33:45;16.05;;;12.32;;
52414;SDS011;38340;52.964;6.086;2023-08-06T05:36:11;16.13;;;13.48;;
52414;SDS011;38340;52.964;6.086;2023-08-06T05:38:36;18.63;;;13.73;;
52414;SDS011;38340;52.964;6.086;2023-08-06T05:41:02;16.42;;;13.10;;
52414;SDS011;38340;52.964;6.086;2023-08-06T05:43:28;20.08;;;13.00;;
52414;SDS011;38340;52.964;6.086;2023-08-06T05:45:53;16.45;;;12.82;;
52414;SDS011;38340;52.964;6.086;2023-08-06T05:48:19;16.90;;;13.27;;
52414;SDS011;38340;52.964;6.086;2023-08-06T05:50:47;21.83;;;13.15;;
52414;SDS011;38340;52.964;6.086;2023-08-06T05:53:12;15.38;;;13.13;;
52414;SDS011;38340;52.964;6.086;2023-08-06T05:55:38;14.93;;;12.75;;
52414;SDS011;38340;52.964;6.086;2023-08-06T05:58:04;16.90;;;13.00;;
52414;SDS011;38340;52.964;6.086;2023-08-06T06:00:29;15.55;;;12.25;;
52414;SDS011;38340;52.964;6.086;2023-08-06T06:02:55;13.80;;;11.40;;
52414;SDS011;38340;52.964;6.086;2023-08-06T06:05:21;15.30;;;11.77;;
52414;SDS011;38340;52.964;6.086;2023-08-06T06:07:46;14.35;;;11.98;;
52414;SDS011;38340;52.964;6.086;2023-08-06T06:10:12;17.52;;;11.15;;
52414;SDS011;38340;52.964;6.086;2023-08-06T06:12:38;16.02;;;10.82;;
52414;SDS011;38340;52.964;6.086;2023-08-06T06:15:04;14.60;;;11.02;;
52414;SDS011;38340;52.964;6.086;2023-08-06T06:17:30;13.80;;;9.95;;
52414;SDS011;38340;52.964;6.086;2023-08-06T06:19:56;12.25;;;9.32;;
52414;SDS011;38340;52.964;6.086;2023-08-06T06:22:21;11.38;;;9.30;;
52414;SDS011;38340;52.964;6.086;2023-08-06T06:24:47;12.55;;;9.93;;
52414;SDS011;38340;52.964;6.086;2023-08-06T06:27:13;10.38;;;8.93;;
52414;SDS011;38340;52.964;6.086;2023-08-06T06:29:39;10.85;;;8.75;;
52414;SDS011;38340;52.964;6.086;2023-08-06T06:32:04;16.27;;;9.02;;
52414;SDS011;38340;52.964;6.086;2023-08-06T06:34:30;10.90;;;8.55;;
52414;SDS011;38340;52.964;6.086;2023-08-06T06:36:56;11.43;;;8.60;;
52414;SDS011;38340;52.964;6.086;2023-08-06T06:39:22;9.32;;;8.13;;
52414;SDS011;38340;52.964;6.086;2023-08-06T06:41:47;9.45;;;8.45;;
52414;SDS011;38340;52.964;6.086;2023-08-06T06:44:13;10.35;;;8.85;;
52414;SDS011;38340;52.964;6.086;2023-08-06T06:46:40;11.43;;;8.80;;
52414;SDS011;38340;52.964;6.086;2023-08-06T06:49:05;10.48;;;8.60;;
52414;SDS011;38340;52.964;6.086;2023-08-06T06:51:31;11.27;;;9.25;;
52414;SDS011;38340;52.964;6.086;2023-08-06T06:53:57;10.68;;;8.50;;
52414;SDS011;38340;52.964;6.086;2023-08-06T06:56:23;11.98;;;9.15;;
52414;SDS011;38340;52.964;6.086;2023-08-06T06:58:49;9.93;;;8.93;;
52414;SDS011;38340;52.964;6.086;2023-08-06T07:01:14;34.63;;;11.40;;
52414;SDS011;38340;52.964;6.086;2023-08-06T07:03:40;12.10;;;9.75;;
52414;SDS011;38340;52.964;6.086;2023-08-06T07:06:06;12.13;;;9.60;;
52414;SDS011;38340;52.964;6.086;2023-08-06T07:08:32;13.98;;;10.18;;
52414;SDS011;38340;52.964;6.086;2023-08-06T07:11:01;16.60;;;11.10;;
52414;SDS011;38340;52.964;6.086;2023-08-06T07:13:28;11.40;;;10.30;;
52414;SDS011;38340;52.964;6.086;2023-08-06T07:15:55;11.85;;;10.65;;
52414;SDS011;38340;52.964;6.086;2023-08-06T07:18:21;11.75;;;10.55;;
52414;SDS011;38340;52.964;6.086;2023-08-06T07:20:51;12.02;;;10.80;;
52414;SDS011;38340;52.964;6.086;2023-08-06T07:23:24;13.52;;;10.85;;
52414;SDS011;38340;52.964;6.086;2023-08-06T07:25:51;11.68;;;10.43;;
52414;SDS011;38340;52.964;6.086;2023-08-06T07:28:16;14.95;;;11.65;;
52414;SDS011;38340;52.964;6.086;2023-08-06T07:30:43;12.38;;;11.07;;
52414;SDS011;38340;52.964;6.086;2023-08-06T07:33:09;12.40;;;10.88;;
52414;SDS011;38340;52.964;6.086;2023-08-06T07:35:35;13.18;;;11.88;;
52414;SDS011;38340;52.964;6.086;2023-08-06T07:38:02;12.38;;;11.07;;
52414;SDS011;38340;52.964;6.086;2023-08-06T07:40:27;14.27;;;11.20;;
52414;SDS011;38340;52.964;6.086;2023-08-06T07:42:53;12.02;;;10.77;;
52414;SDS011;38340;52.964;6.086;2023-08-06T07:45:19;12.48;;;11.23;;
52414;SDS011;38340;52.964;6.086;2023-08-06T07:47:45;11.18;;;9.98;;
52414;SDS011;38340;52.964;6.086;2023-08-06T07:50:12;11.93;;;10.70;;
52414;SDS011;38340;52.964;6.086;2023-08-06T07:52:38;14.13;;;10.50;;
52414;SDS011;38340;52.964;6.086;2023-08-06T07:55:04;10.90;;;9.80;;
52414;SDS011;38340;52.964;6.086;2023-08-06T07:57:33;11.73;;;9.80;;
52414;SDS011;38340;52.964;6.086;2023-08-06T07:59:59;10.77;;;9.63;;
52414;SDS011;38340;52.964;6.086;2023-08-06T08:02:25;13.10;;;9.50;;
52414;SDS011;38340;52.964;6.086;2023-08-06T08:04:51;15.02;;;10.57;;
52414;SDS011;38340;52.964;6.086;2023-08-06T08:07:17;12.85;;;10.70;;
52414;SDS011;38340;52.964;6.086;2023-08-06T08:09:43;12.45;;;11.13;;
52414;SDS011;38340;52.964;6.086;2023-08-06T08:12:09;12.55;;;10.50;;
52414;SDS011;38340;52.964;6.086;2023-08-06T08:14:35;12.02;;;10.43;;
52414;SDS011;38340;52.964;6.086;2023-08-06T08:17:02;11.70;;;10.50;;
52414;SDS011;38340;52.964;6.086;2023-08-06T08:19:28;14.05;;;11.13;;
52414;SDS011;38340;52.964;6.086;2023-08-06T08:21:54;12.80;;;11.20;;
52414;SDS011;38340;52.964;6.086;2023-08-06T08:24:20;12.88;;;11.48;;
52414;SDS011;38340;52.964;6.086;2023-08-06T08:26:49;14.25;;;12.30;;
52414;SDS011;38340;52.964;6.086;2023-08-06T08:29:19;15.43;;;11.48;;
52414;SDS011;38340;52.964;6.086;2023-08-06T08:31:46;14.07;;;11.82;;
52414;SDS011;38340;52.964;6.086;2023-08-06T08:34:14;12.50;;;11.20;;
52414;SDS011;38340;52.964;6.086;2023-08-06T08:36:40;13.38;;;11.38;;
52414;SDS011;38340;52.964;6.086;2023-08-06T08:39:06;14.07;;;11.27;;
52414;SDS011;38340;52.964;6.086;2023-08-06T08:41:32;11.63;;;10.50;;
52414;SDS011;38340;52.964;6.086;2023-08-06T08:43:59;11.38;;;10.18;;
52414;SDS011;38340;52.964;6.086;2023-08-06T08:46:28;12.20;;;10.30;;
52414;SDS011;38340;52.964;6.086;2023-08-06T08:48:56;11.80;;;10.60;;
52414;SDS011;38340;52.964;6.086;2023-08-06T08:51:25;13.85;;;9.75;;
52414;SDS011;38340;52.964;6.086;2023-08-06T08:53:53;11.88;;;9.27;;
52414;SDS011;38340;52.964;6.086;2023-08-06T08:56:22;10.52;;;9.40;;
52414;SDS011;38340;52.964;6.086;2023-08-06T08:58:49;9.70;;;8.70;;
52414;SDS011;38340;52.964;6.086;2023-08-06T09:01:15;9.25;;;8.35;;
52414;SDS011;38340;52.964;6.086;2023-08-06T09:03:42;10.10;;;8.32;;
52414;SDS011;38340;52.964;6.086;2023-08-06T09:06:09;8.38;;;7.32;;
52414;SDS011;38340;52.964;6.086;2023-08-06T09:08:37;9.93;;;7.65;;
52414;SDS011;38340;52.964;6.086;2023-08-06T09:11:08;9.75;;;7.93;;
52414;SDS011;38340;52.964;6.086;2023-08-06T09:13:36;8.43;;;7.50;;
52414;SDS011;38340;52.964;6.086;2023-08-06T09:16:02;7.80;;;7.00;;
52414;SDS011;38340;52.964;6.086;2023-08-06T09:18:29;10.38;;;7.30;;
52414;SDS011;38340;52.964;6.086;2023-08-06T09:20:55;7.80;;;6.50;;
52414;SDS011;38340;52.964;6.086;2023-08-06T09:23:27;7.78;;;6.15;;
52414;SDS011;38340;52.964;6.086;2023-08-06T09:25:58;7.20;;;5.20;;
52414;SDS011;38340;52.964;6.086;2023-08-06T09:28:24;6.68;;;5.70;;
52414;SDS011;38340;52.964;6.086;2023-08-06T09:31:02;6.10;;;5.25;;
52414;SDS011;38340;52.964;6.086;2023-08-06T09:33:29;7.72;;;5.53;;
52414;SDS011;38340;52.964;6.086;2023-08-06T09:35:54;6.32;;;5.68;;
52414;SDS011;38340;52.964;6.086;2023-08-06T09:38:20;6.68;;;4.90;;
52414;SDS011;38340;52.964;6.086;2023-08-06T09:40:46;5.82;;;4.88;;
52414;SDS011;38340;52.964;6.086;2023-08-06T09:43:12;7.18;;;5.50;;
52414;SDS011;38340;52.964;6.086;2023-08-06T09:45:38;6.72;;;4.72;;
52414;SDS011;38340;52.964;6.086;2023-08-06T09:48:05;6.35;;;4.90;;
52414;SDS011;38340;52.964;6.086;2023-08-06T09:50:33;6.18;;;5.45;;
52414;SDS011;38340;52.964;6.086;2023-08-06T09:53:06;5.88;;;5.22;;
52414;SDS011;38340;52.964;6.086;2023-08-06T09:55:33;7.78;;;5.50;;
52414;SDS011;38340;52.964;6.086;2023-08-06T09:57:59;5.78;;;5.10;;
52414;SDS011;38340;52.964;6.086;2023-08-06T10:00:25;5.65;;;4.97;;
52414;SDS011;38340;52.964;6.086;2023-08-06T10:02:53;5.85;;;5.13;;
52414;SDS011;38340;52.964;6.086;2023-08-06T10:05:21;6.82;;;5.63;;
52414;SDS011;38340;52.964;6.086;2023-08-06T10:07:48;6.50;;;5.05;;
52414;SDS011;38340;52.964;6.086;2023-08-06T10:10:16;6.68;;;4.93;;
52414;SDS011;38340;52.964;6.086;2023-08-06T10:12:43;12.07;;;5.93;;
52414;SDS011;38340;52.964;6.086;2023-08-06T10:15:16;6.47;;;4.25;;
52414;SDS011;38340;52.964;6.086;2023-08-06T10:17:46;6.82;;;4.43;;
52414;SDS011;38340;52.964;6.086;2023-08-06T10:20:14;5.90;;;4.32;;
52414;SDS011;38340;52.964;6.086;2023-08-06T10:22:43;7.13;;;4.72;;
52414;SDS011;38340;52.964;6.086;2023-08-06T10:25:10;4.45;;;3.92;;
52414;SDS011;38340;52.964;6.086;2023-08-06T10:28:09;4.32;;;3.90;;
52414;SDS011;38340;52.964;6.086;2023-08-06T10:30:36;4.60;;;3.75;;
52414;SDS011;38340;52.964;6.086;2023-08-06T10:33:07;4.32;;;3.80;;
52414;SDS011;38340;52.964;6.086;2023-08-06T10:40:38;8.85;;;4.07;;
52414;SDS011;38340;52.964;6.086;2023-08-06T10:43:05;4.93;;;4.18;;
52414;SDS011;38340;52.964;6.086;2023-08-06T10:45:36;4.90;;;4.00;;
52414;SDS011;38340;52.964;6.086;2023-08-06T10:48:03;5.18;;;4.15;;
52414;SDS011;38340;52.964;6.086;2023-08-06T10:50:29;4.22;;;3.83;;
52414;SDS011;38340;52.964;6.086;2023-08-06T10:52:56;5.03;;;4.50;;
52414;SDS011;38340;52.964;6.086;2023-08-06T10:55:26;5.78;;;4.10;;
52414;SDS011;38340;52.964;6.086;2023-08-06T10:57:52;5.20;;;3.85;;
52414;SDS011;38340;52.964;6.086;2023-08-06T11:00:20;7.03;;;3.80;;
52414;SDS011;38340;52.964;6.086;2023-08-06T11:02:47;4.13;;;3.65;;
52414;SDS011;38340;52.964;6.086;2023-08-06T11:05:14;5.22;;;3.63;;
52414;SDS011;38340;52.964;6.086;2023-08-06T11:07:40;4.55;;;3.80;;
52414;SDS011;38340;52.964;6.086;2023-08-06T11:10:09;4.97;;;3.83;;
52414;SDS011;38340;52.964;6.086;2023-08-06T11:12:36;4.65;;;3.90;;
52414;SDS011;38340;52.964;6.086;2023-08-06T11:15:02;5.00;;;3.65;;
52414;SDS011;38340;52.964;6.086;2023-08-06T11:17:30;4.32;;;3.92;;
52414;SDS011;38340;52.964;6.086;2023-08-06T11:19:58;6.03;;;3.90;;
52414;SDS011;38340;52.964;6.086;2023-08-06T11:22:25;5.20;;;4.30;;
52414;SDS011;38340;52.964;6.086;2023-08-06T11:24:52;7.88;;;5.80;;
52414;SDS011;38340;52.964;6.086;2023-08-06T11:27:18;5.43;;;4.40;;
52414;SDS011;38340;52.964;6.086;2023-08-06T11:29:44;5.45;;;3.70;;
52414;SDS011;38340;52.964;6.086;2023-08-06T11:32:10;5.30;;;3.42;;
52414;SDS011;38340;52.964;6.086;2023-08-06T11:34:37;4.15;;;3.30;;
52414;SDS011;38340;52.964;6.086;2023-08-06T11:37:04;3.70;;;3.30;;
52414;SDS011;38340;52.964;6.086;2023-08-06T11:39:34;4.22;;;3.10;;
52414;SDS011;38340;52.964;6.086;2023-08-06T11:42:00;7.00;;;3.58;;
52414;SDS011;38340;52.964;6.086;2023-08-06T11:44:29;3.90;;;3.00;;
52414;SDS011;38340;52.964;6.086;2023-08-06T11:46:59;4.85;;;3.03;;
52414;SDS011;38340;52.964;6.086;2023-08-06T11:49:39;4.60;;;3.05;;
52414;SDS011;38340;52.964;6.086;2023-08-06T11:52:25;4.38;;;3.15;;
52414;SDS011;38340;52.964;6.086;2023-08-06T11:55:01;4.68;;;3.05;;
52414;SDS011;38340;52.964;6.086;2023-08-06T11:57:33;4.80;;;3.20;;
52414;SDS011;38340;52.964;6.086;2023-08-06T12:00:06;4.63;;;2.90;;
52414;SDS011;38340;52.964;6.086;2023-08-06T12:02:38;5.43;;;2.97;;
52414;SDS011;38340;52.964;6.086;2023-08-06T12:07:36;4.10;;;2.65;;
52414;SDS011;38340;52.964;6.086;2023-08-06T12:10:03;4.43;;;2.65;;
52414;SDS011;38340;52.964;6.086;2023-08-06T12:12:30;4.75;;;3.08;;
52414;SDS011;38340;52.964;6.086;2023-08-06T12:14:56;5.85;;;3.38;;
52414;SDS011;38340;52.964;6.086;2023-08-06T12:17:22;7.35;;;3.60;;
52414;SDS011;38340;52.964;6.086;2023-08-06T12:19:49;4.43;;;3.45;;
52414;SDS011;38340;52.964;6.086;2023-08-06T12:22:14;5.95;;;3.65;;
52414;SDS011;38340;52.964;6.086;2023-08-06T12:24:41;3.58;;;3.10;;
52414;SDS011;38340;52.964;6.086;2023-08-06T12:27:08;4.70;;;3.55;;
52414;SDS011;38340;52.964;6.086;2023-08-06T12:29:34;5.28;;;3.50;;
52414;SDS011;38340;52.964;6.086;2023-08-06T12:32:00;5.22;;;3.60;;
52414;SDS011;38340;52.964;6.086;2023-08-06T12:34:26;4.00;;;3.45;;
52414;SDS011;38340;52.964;6.086;2023-08-06T12:36:52;5.15;;;3.40;;
52414;SDS011;38340;52.964;6.086;2023-08-06T12:39:18;5.57;;;3.67;;
52414;SDS011;38340;52.964;6.086;2023-08-06T12:41:43;4.05;;;3.50;;
52414;SDS011;38340;52.964;6.086;2023-08-06T12:44:11;5.85;;;3.65;;
52414;SDS011;38340;52.964;6.086;2023-08-06T12:46:37;4.50;;;3.25;;
52414;SDS011;38340;52.964;6.086;2023-08-06T12:49:03;8.18;;;3.83;;
52414;SDS011;38340;52.964;6.086;2023-08-06T12:51:29;5.53;;;3.50;;
52414;SDS011;38340;52.964;6.086;2023-08-06T12:53:54;5.68;;;3.30;;
52414;SDS011;38340;52.964;6.086;2023-08-06T12:56:20;8.85;;;3.40;;
52414;SDS011;38340;52.964;6.086;2023-08-06T12:58:45;5.28;;;3.42;;
52414;SDS011;38340;52.964;6.086;2023-08-06T13:01:11;4.43;;;3.25;;
52414;SDS011;38340;52.964;6.086;2023-08-06T13:03:37;3.72;;;3.30;;
52414;SDS011;38340;52.964;6.086;2023-08-06T13:06:02;3.63;;;2.90;;
52414;SDS011;38340;52.964;6.086;2023-08-06T13:08:28;3.35;;;2.88;;
52414;SDS011;38340;52.964;6.086;2023-08-06T13:10:54;4.95;;;2.85;;
52414;SDS011;38340;52.964;6.086;2023-08-06T13:13:19;5.03;;;3.60;;
52414;SDS011;38340;52.964;6.086;2023-08-06T13:15:45;4.53;;;3.42;;
52414;SDS011;38340;52.964;6.086;2023-08-06T13:18:11;4.65;;;3.40;;
52414;SDS011;38340;52.964;6.086;2023-08-06T13:20:38;5.28;;;3.45;;
52414;SDS011;38340;52.964;6.086;2023-08-06T13:23:05;4.50;;;3.55;;
52414;SDS011;38340;52.964;6.086;2023-08-06T13:25:31;4.97;;;4.07;;
52414;SDS011;38340;52.964;6.086;2023-08-06T13:28:01;7.63;;;4.63;;
52414;SDS011;38340;52.964;6.086;2023-08-06T13:30:30;4.07;;;3.50;;
52414;SDS011;38340;52.964;6.086;2023-08-06T13:32:55;7.45;;;4.60;;
52414;SDS011;38340;52.964;6.086;2023-08-06T13:35:22;8.15;;;5.13;;
52414;SDS011;38340;52.964;6.086;2023-08-06T13:37:48;6.43;;;4.00;;
52414;SDS011;38340;52.964;6.086;2023-08-06T13:40:14;6.55;;;3.60;;
52414;SDS011;38340;52.964;6.086;2023-08-06T13:42:40;5.78;;;4.28;;
52414;SDS011;38340;52.964;6.086;2023-08-06T13:45:06;6.85;;;4.43;;
52414;SDS011;38340;52.964;6.086;2023-08-06T13:47:32;6.55;;;3.55;;
52414;SDS011;38340;52.964;6.086;2023-08-06T13:49:58;4.45;;;3.63;;
52414;SDS011;38340;52.964;6.086;2023-08-06T13:52:25;4.78;;;3.60;;
52414;SDS011;38340;52.964;6.086;2023-08-06T13:54:51;4.20;;;3.45;;
52414;SDS011;38340;52.964;6.086;2023-08-06T13:57:17;5.05;;;3.72;;
52414;SDS011;38340;52.964;6.086;2023-08-06T13:59:43;4.45;;;3.58;;
52414;SDS011;38340;52.964;6.086;2023-08-06T14:02:09;5.03;;;3.40;;
52414;SDS011;38340;52.964;6.086;2023-08-06T14:04:35;4.55;;;3.67;;
52414;SDS011;38340;52.964;6.086;2023-08-06T14:07:02;4.30;;;3.47;;
52414;SDS011;38340;52.964;6.086;2023-08-06T14:09:28;4.78;;;3.50;;
52414;SDS011;38340;52.964;6.086;2023-08-06T14:11:54;5.43;;;3.33;;
52414;SDS011;38340;52.964;6.086;2023-08-06T14:14:20;6.63;;;4.57;;
52414;SDS011;38340;52.964;6.086;2023-08-06T14:16:51;4.93;;;3.67;;
52414;SDS011;38340;52.964;6.086;2023-08-06T14:19:17;7.05;;;3.67;;
52414;SDS011;38340;52.964;6.086;2023-08-06T14:21:43;6.05;;;4.10;;
52414;SDS011;38340;52.964;6.086;2023-08-06T14:24:08;4.93;;;3.83;;
52414;SDS011;38340;52.964;6.086;2023-08-06T14:26:34;8.30;;;4.85;;
52414;SDS011;38340;52.964;6.086;2023-08-06T14:29:00;5.15;;;4.18;;
52414;SDS011;38340;52.964;6.086;2023-08-06T14:31:26;8.05;;;4.50;;
52414;SDS011;38340;52.964;6.086;2023-08-06T14:33:52;5.05;;;4.20;;
52414;SDS011;38340;52.964;6.086;2023-08-06T14:36:18;6.95;;;4.85;;
52414;SDS011;38340;52.964;6.086;2023-08-06T14:38:44;5.40;;;4.40;;
52414;SDS011;38340;52.964;6.086;2023-08-06T14:41:10;6.13;;;4.40;;